createdAt,value
2022-08-05T00:00:16.049Z,3.55
2022-08-05T00:02:50.808Z,3.45
2022-08-05T00:06:02.984Z,3.45
2022-08-05T00:08:30.853Z,3.42
2022-08-05T00:11:00.496Z,3.55
2022-08-05T00:13:38.066Z,3.50
2022-08-05T00:16:12.251Z,3.78
2022-08-05T00:18:44.817Z,3.85
2022-08-05T00:21:14.417Z,3.40
2022-08-05T00:23:46.816Z,3.42
2022-08-05T00:26:22.403Z,3.72
2022-08-05T00:28:51.412Z,3.55
2022-08-05T00:31:53.590Z,4.00
2022-08-05T00:34:56.408Z,3.70
2022-08-05T00:37:12.745Z,3.72
2022-08-05T00:39:44.357Z,3.75
2022-08-05T00:45:00.960Z,3.83
2022-08-05T00:47:53.267Z,3.58
2022-08-05T00:50:18.666Z,3.85
2022-08-05T00:52:49.202Z,3.83
2022-08-05T00:55:17.454Z,3.47
2022-08-05T00:57:58.751Z,3.92
2022-08-05T01:00:28.299Z,3.95
2022-08-05T01:02:57.004Z,3.78
2022-08-05T01:05:27.485Z,3.90
2022-08-05T01:08:40.885Z,4.15
2022-08-05T01:10:52.467Z,4.00
2022-08-05T01:13:27.464Z,4.22
2022-08-05T01:16:26.139Z,4.50
2022-08-05T01:19:01.967Z,4.30
2022-08-05T01:21:50.486Z,3.88
2022-08-05T01:24:34.219Z,3.80
2022-08-05T01:27:19.069Z,3.95
2022-08-05T01:29:54.625Z,3.97
2022-08-05T01:32:27.709Z,4.20
2022-08-05T01:34:59.895Z,3.92
2022-08-05T01:37:36.745Z,4.05
2022-08-05T01:40:14.072Z,4.10
2022-08-05T01:45:17.601Z,4.40
2022-08-05T01:47:54.598Z,4.30
2022-08-05T01:50:29.705Z,4.78
2022-08-05T01:53:01.881Z,4.28
2022-08-05T01:55:36.288Z,4.75
2022-08-05T01:58:11.255Z,4.50
2022-08-05T02:00:48.487Z,4.30
2022-08-05T02:03:24.189Z,4.38
2022-08-05T02:05:59.758Z,4.30
2022-08-05T02:08:31.217Z,4.30
2022-08-05T02:11:03.695Z,4.25
2022-08-05T02:13:53.495Z,4.28
2022-08-05T02:16:27.552Z,4.65
2022-08-05T02:21:30.495Z,4.40
2022-08-05T02:24:19.810Z,7.75
2022-08-05T02:26:55.642Z,5.00
2022-08-05T02:29:58.937Z,5.03
2022-08-05T02:32:24.239Z,4.90
2022-08-05T02:35:09.723Z,4.95
2022-08-05T02:37:47.798Z,4.40
2022-08-05T02:40:24.312Z,4.07
2022-08-05T02:42:55.354Z,4.60
2022-08-05T02:45:25.410Z,4.38
2022-08-05T02:48:06.505Z,4.63
2022-08-05T02:50:38.361Z,4.70
2022-08-05T02:53:19.075Z,5.18
2022-08-05T02:56:00.141Z,4.80
2022-08-05T02:58:31.783Z,4.95
2022-08-05T03:01:02.679Z,4.97
2022-08-05T03:04:02.867Z,4.50
2022-08-05T03:06:56.735Z,5.05
2022-08-05T03:09:15.868Z,4.70
2022-08-05T03:14:26.840Z,4.70
2022-08-05T03:16:54.904Z,4.82
2022-08-05T03:19:33.931Z,4.93
2022-08-05T03:22:04.709Z,5.18
2022-08-05T03:24:33.774Z,5.10
2022-08-05T03:27:03.245Z,5.03
2022-08-05T03:29:45.185Z,5.50
2022-08-05T03:32:31.103Z,4.95
2022-08-05T03:35:01.355Z,4.75
2022-08-05T03:37:44.763Z,4.68
2022-08-05T03:40:15.277Z,4.80
2022-08-05T03:42:52.925Z,5.03
2022-08-05T03:45:23.071Z,4.95
2022-08-05T03:47:52.011Z,4.90
2022-08-05T03:50:30.208Z,4.72
2022-08-05T03:55:50.630Z,5.20
2022-08-05T03:56:11.079Z,4.90
2022-08-05T03:58:44.704Z,5.35
2022-08-05T04:01:16.447Z,5.00
2022-08-05T04:04:08.922Z,5.15
2022-08-05T04:06:47.939Z,5.32
2022-08-05T04:09:20.312Z,4.93
2022-08-05T04:11:54.312Z,5.53
2022-08-05T04:14:29.490Z,5.65
2022-08-05T04:16:59.475Z,4.80
2022-08-05T04:19:27.678Z,5.30
2022-08-05T04:22:08.601Z,4.88
2022-08-05T04:24:44.150Z,4.68
2022-08-05T04:27:13.469Z,4.67
2022-08-05T04:29:41.699Z,5.90
2022-08-05T04:32:11.016Z,7.82
2022-08-05T04:34:42.929Z,5.78
2022-08-05T04:37:12.891Z,5.00
2022-08-05T04:39:41.017Z,4.35
2022-08-05T04:42:10.086Z,4.40
2022-08-05T04:44:39.135Z,4.50
2022-08-05T04:47:08.766Z,4.60
2022-08-05T04:50:01.958Z,4.28
2022-08-05T04:52:27.471Z,4.30
2022-08-05T04:54:57.279Z,4.45
2022-08-05T04:57:28.975Z,4.90
2022-08-05T04:59:58.882Z,4.75
2022-08-05T05:02:36.203Z,4.72
2022-08-05T05:05:25.995Z,4.53
2022-08-05T05:08:00.785Z,4.40
2022-08-05T05:10:29.622Z,4.82
2022-08-05T05:12:58.056Z,4.07
2022-08-05T05:15:56.740Z,4.00
2022-08-05T05:18:16.592Z,4.70
2022-08-05T05:20:59.363Z,4.25
2022-08-05T05:23:39.228Z,4.45
2022-08-05T05:26:17.817Z,4.50
2022-08-05T05:28:45.804Z,4.10
2022-08-05T05:31:13.889Z,4.68
2022-08-05T05:33:58.708Z,4.32
2022-08-05T05:36:29.823Z,4.30
2022-08-05T05:38:59.885Z,4.47
2022-08-05T05:41:40.874Z,4.20
2022-08-05T05:44:35.475Z,4.57
2022-08-05T05:47:04.300Z,4.40
2022-08-05T05:49:33.082Z,4.72
2022-08-05T05:52:01.428Z,4.80
2022-08-05T05:54:50.823Z,4.55
2022-08-05T05:57:19.649Z,4.68
2022-08-05T05:59:47.788Z,4.65
2022-08-05T06:02:17.249Z,4.50
2022-08-05T06:05:01.362Z,4.22
2022-08-05T06:07:41.887Z,4.50
2022-08-05T06:10:12.198Z,4.20
2022-08-05T06:12:42.296Z,4.88
2022-08-05T06:15:23.529Z,4.72
2022-08-05T06:17:54.200Z,5.03
2022-08-05T06:20:23.203Z,5.07
2022-08-05T06:22:51.258Z,4.78
2022-08-05T06:25:25.047Z,5.18
2022-08-05T06:28:10.685Z,4.90
2022-08-05T06:30:41.317Z,5.00
2022-08-05T06:33:10.032Z,14.55
2022-08-05T06:36:08.187Z,11.68
2022-08-05T06:38:36.170Z,21.92
2022-08-05T06:41:07.897Z,15.10
2022-08-05T06:43:57.506Z,15.05
2022-08-05T06:46:30.320Z,6.22
2022-08-05T06:48:59.688Z,4.60
2022-08-05T06:51:31.094Z,4.70
2022-08-05T06:54:00.027Z,4.97
2022-08-05T06:56:29.764Z,6.25
2022-08-05T06:58:57.930Z,5.40
2022-08-05T07:01:27.596Z,5.50
2022-08-05T07:04:00.201Z,4.65
2022-08-05T07:06:29.206Z,4.70
2022-08-05T07:08:59.054Z,5.35
2022-08-05T07:11:28.796Z,5.50
2022-08-05T07:14:20.507Z,4.80
2022-08-05T07:18:08.590Z,4.65
2022-08-05T07:22:37.454Z,4.95
2022-08-05T07:25:23.831Z,6.10
2022-08-05T07:27:58.634Z,4.40
2022-08-05T07:30:33.654Z,4.47
2022-08-05T07:33:08.807Z,3.30
2022-08-05T07:36:05.387Z,4.03
2022-08-05T07:38:32.001Z,4.68
2022-08-05T07:42:08.760Z,4.18
2022-08-05T07:43:56.116Z,4.05
2022-08-05T07:46:26.975Z,3.75
2022-08-05T07:49:02.857Z,4.13
2022-08-05T07:51:36.771Z,3.90
2022-08-05T07:54:08.466Z,3.85
2022-08-05T07:56:39.152Z,3.60
2022-08-05T07:59:38.716Z,3.88
2022-08-05T08:02:16.809Z,3.70
2022-08-05T08:04:46.508Z,3.72
2022-08-05T08:07:14.995Z,4.13
2022-08-05T08:09:43.704Z,4.20
2022-08-05T08:12:35.457Z,3.85
2022-08-05T08:15:03.459Z,4.32
2022-08-05T08:17:35.268Z,4.00
2022-08-05T08:20:22.414Z,4.22
2022-08-05T08:22:55.788Z,3.90
2022-08-05T08:25:26.875Z,3.58
2022-08-05T08:28:18.928Z,4.25
2022-08-05T08:31:00.759Z,3.78
2022-08-05T08:33:30.454Z,4.00
2022-08-05T08:36:37.510Z,3.80
2022-08-05T08:38:55.709Z,4.43
2022-08-05T08:41:52.183Z,3.85
2022-08-05T08:45:20.786Z,3.53
2022-08-05T08:47:22.181Z,3.88
2022-08-05T08:50:23.021Z,3.83
2022-08-05T08:52:51.430Z,3.33
2022-08-05T08:56:03.002Z,3.40
2022-08-05T08:58:10.568Z,3.40
2022-08-05T09:00:41.710Z,3.58
2022-08-05T09:03:11.320Z,3.50
2022-08-05T09:06:07.429Z,3.70
2022-08-05T09:08:30.321Z,3.75
2022-08-05T09:10:58.640Z,3.60
2022-08-05T09:13:31.698Z,3.38
2022-08-05T09:16:00.249Z,3.50
2022-08-05T09:18:28.410Z,3.70
2022-08-05T09:20:59.247Z,3.55
2022-08-05T09:23:28.848Z,4.53
2022-08-05T09:26:09.953Z,4.00
2022-08-05T09:28:40.091Z,3.97
2022-08-05T09:31:22.173Z,3.70
2022-08-05T09:34:01.614Z,4.00
2022-08-05T09:36:54.700Z,3.60
2022-08-05T09:39:27.871Z,3.60
2022-08-05T09:42:21.225Z,3.72
2022-08-05T09:44:56.379Z,4.00
2022-08-05T09:47:49.003Z,3.92
2022-08-05T09:50:18.119Z,3.80
2022-08-05T09:53:04.934Z,3.67
2022-08-05T09:55:56.198Z,3.63
2022-08-05T10:01:01.008Z,4.13
2022-08-05T10:03:56.768Z,3.80
2022-08-05T10:06:21.002Z,3.92
2022-08-05T10:08:55.334Z,3.97
2022-08-05T10:11:24.102Z,3.75
2022-08-05T10:13:59.485Z,3.40
2022-08-05T10:16:34.036Z,3.78
2022-08-05T10:19:08.593Z,3.70
2022-08-05T10:21:41.068Z,3.92
2022-08-05T10:24:13.751Z,3.60
2022-08-05T10:26:51.441Z,3.80
2022-08-05T10:29:24.023Z,3.50
2022-08-05T10:32:52.341Z,3.50
2022-08-05T10:35:00.954Z,3.65
2022-08-05T10:37:40.012Z,3.70
2022-08-05T10:40:28.130Z,3.70
2022-08-05T10:43:02.654Z,3.83
2022-08-05T10:45:40.527Z,3.70
2022-08-05T10:48:38.446Z,3.60
2022-08-05T10:51:28.458Z,3.22
2022-08-05T10:54:01.716Z,3.58
2022-08-05T10:56:46.987Z,3.25
2022-08-05T11:00:01.849Z,3.40
2022-08-05T11:02:14.262Z,3.20
2022-08-05T11:04:57.423Z,3.53
2022-08-05T11:07:32.930Z,3.25
2022-08-05T11:10:27.455Z,3.30
2022-08-05T11:12:58.794Z,3.67
2022-08-05T11:16:00.326Z,3.17
2022-08-05T11:18:29.958Z,3.10
2022-08-05T11:21:06.356Z,3.28
2022-08-05T11:24:02.807Z,3.00
2022-08-05T11:26:33.483Z,3.10
2022-08-05T11:29:12.170Z,3.47
2022-08-05T11:31:54.299Z,3.30
2022-08-05T11:34:39.731Z,3.35
2022-08-05T11:38:30.468Z,3.13
2022-08-05T11:40:03.102Z,3.42
2022-08-05T11:42:37.991Z,3.10
2022-08-05T11:45:14.479Z,3.25
2022-08-05T11:47:54.870Z,3.60
2022-08-05T11:50:23.318Z,3.10
2022-08-05T11:52:57.668Z,3.10
2022-08-05T11:55:31.812Z,3.55
2022-08-05T11:58:10.760Z,3.08
2022-08-05T12:00:44.367Z,3.20
2022-08-05T12:03:28.448Z,2.95
2022-08-05T12:08:28.003Z,3.17
2022-08-05T12:11:05.419Z,3.80
2022-08-05T12:13:49.650Z,3.25
2022-08-05T12:16:25.677Z,3.60
2022-08-05T12:18:55.536Z,3.40
2022-08-05T12:21:26.931Z,3.65
2022-08-05T12:24:05.194Z,3.50
2022-08-05T12:26:36.858Z,3.28
2022-08-05T12:29:09.334Z,3.85
2022-08-05T12:31:42.466Z,3.40
2022-08-05T12:34:21.108Z,3.78
2022-08-05T12:36:51.151Z,3.75
2022-08-05T12:39:20.349Z,3.90
2022-08-05T12:41:48.741Z,3.78
2022-08-05T12:44:32.572Z,3.50
2022-08-05T12:47:03.909Z,4.00
2022-08-05T12:50:03.253Z,3.58
2022-08-05T12:52:39.487Z,3.22
2022-08-05T12:55:22.075Z,3.40
2022-08-05T12:58:50.870Z,3.47
2022-08-05T13:02:02.931Z,3.65
2022-08-05T13:03:33.741Z,3.47
2022-08-05T13:06:08.394Z,3.53
2022-08-05T13:08:40.216Z,3.50
2022-08-05T13:11:09.014Z,3.67
2022-08-05T13:14:06.643Z,3.50
2022-08-05T13:16:28.186Z,3.47
2022-08-05T13:18:58.877Z,3.35
2022-08-05T13:21:28.326Z,3.40
2022-08-05T13:24:08.892Z,3.03
2022-08-05T13:26:37.139Z,3.22
2022-08-05T13:29:05.945Z,3.60
2022-08-05T13:32:04.179Z,2.95
2022-08-05T13:34:25.863Z,3.15
2022-08-05T13:36:55.600Z,2.97
2022-08-05T13:40:14.394Z,3.33
2022-08-05T13:42:14.630Z,3.08
2022-08-05T13:44:45.898Z,3.17
2022-08-05T13:47:34.818Z,3.22
2022-08-05T13:50:06.852Z,3.35
2022-08-05T13:52:39.413Z,3.00
2022-08-05T13:55:10.016Z,3.15
2022-08-05T13:57:50.702Z,3.33
2022-08-05T14:00:26.903Z,3.10
2022-08-05T14:02:56.771Z,3.42
2022-08-05T14:05:47.892Z,3.25
2022-08-05T14:08:21.253Z,3.35
2022-08-05T14:11:03.190Z,3.33
2022-08-05T14:13:44.245Z,3.30
2022-08-05T14:16:16.964Z,3.30
2022-08-05T14:18:47.163Z,3.20
2022-08-05T14:22:07.883Z,3.03
2022-08-05T14:24:05.634Z,3.08
2022-08-05T14:26:38.726Z,3.20
2022-08-05T14:29:15.954Z,3.00
2022-08-05T14:32:03.061Z,3.15
2022-08-05T14:34:35.427Z,2.97
2022-08-05T14:37:05.933Z,2.90
2022-08-05T14:39:49.692Z,3.00
2022-08-05T14:42:23.505Z,3.10
2022-08-05T14:44:53.766Z,2.88
2022-08-05T14:47:58.314Z,3.10
2022-08-05T14:50:18.117Z,3.08
2022-08-05T14:52:57.779Z,2.70
2022-08-05T14:55:38.536Z,3.40
2022-08-05T14:58:11.927Z,2.95
2022-08-05T15:00:59.770Z,3.08
2022-08-05T15:03:34.017Z,3.30
2022-08-05T15:06:15.391Z,3.13
2022-08-05T15:08:59.688Z,2.92
2022-08-05T15:11:51.752Z,3.40
2022-08-05T15:14:35.659Z,2.70
2022-08-05T15:17:10.038Z,2.90
2022-08-05T15:19:57.505Z,3.00
2022-08-05T15:22:27.299Z,2.88
2022-08-05T15:24:59.297Z,3.38
2022-08-05T15:27:32.105Z,3.13
2022-08-05T15:30:05.735Z,3.10
2022-08-05T15:32:33.839Z,3.20
2022-08-05T15:35:09.792Z,3.10
2022-08-05T15:38:34.854Z,3.13
2022-08-05T15:41:00.015Z,2.78
2022-08-05T15:43:19.787Z,3.35
2022-08-05T15:46:00.066Z,3.30
2022-08-05T15:48:30.060Z,3.35
2022-08-05T15:51:03.486Z,3.28
2022-08-05T15:53:38.522Z,3.15
2022-08-05T15:56:20.156Z,2.97
2022-08-05T15:58:48.689Z,2.92
2022-08-05T16:01:19.081Z,3.55
2022-08-05T16:03:50.810Z,3.38
2022-08-05T16:06:20.940Z,3.20
2022-08-05T16:08:55.266Z,3.40
2022-08-05T16:11:42.952Z,3.10
2022-08-05T16:14:17.529Z,3.20
2022-08-05T16:16:46.461Z,3.50
2022-08-05T16:19:18.809Z,3.25
2022-08-05T16:22:00.559Z,3.08
2022-08-05T16:24:39.879Z,3.10
2022-08-05T16:27:15.744Z,3.30
2022-08-05T16:29:50.097Z,2.90
2022-08-05T16:32:28.522Z,3.47
2022-08-05T16:34:58.750Z,3.20
2022-08-05T16:38:03.553Z,3.30
2022-08-05T16:40:24.840Z,3.08
2022-08-05T16:42:58.416Z,3.50
2022-08-05T16:46:04.819Z,3.00
2022-08-05T16:48:26.193Z,3.35
2022-08-05T16:51:02.128Z,3.30
2022-08-05T16:54:02.377Z,3.10
2022-08-05T16:56:20.061Z,3.20
2022-08-05T16:58:49.650Z,3.35
2022-08-05T17:01:18.794Z,3.60
2022-08-05T17:03:47.259Z,3.58
2022-08-05T17:06:16.774Z,3.35
2022-08-05T17:08:53.627Z,3.00
2022-08-05T17:11:23.910Z,3.40
2022-08-05T17:14:05.665Z,3.28
2022-08-05T17:16:36.433Z,3.78
2022-08-05T17:19:07.278Z,4.72
2022-08-05T17:21:36.944Z,5.38
2022-08-05T17:24:19.830Z,6.85
2022-08-05T17:26:55.369Z,7.05
2022-08-05T17:29:33.071Z,7.82
2022-08-05T17:32:02.313Z,8.70
2022-08-05T17:34:32.073Z,9.50
2022-08-05T17:37:00.739Z,9.85
2022-08-05T17:39:34.424Z,9.90
2022-08-05T17:42:18.348Z,8.82
2022-08-05T17:44:51.649Z,10.13
2022-08-05T17:47:22.238Z,9.27
2022-08-05T17:50:00.122Z,8.32
2022-08-05T17:52:33.393Z,8.30
2022-08-05T17:55:03.078Z,7.53
2022-08-05T17:57:31.420Z,7.15
2022-08-05T18:00:04.718Z,5.90
2022-08-05T18:02:34.262Z,5.15
2022-08-05T18:05:06.345Z,4.85
2022-08-05T18:07:41.147Z,4.30
2022-08-05T18:10:20.286Z,3.60
2022-08-05T18:12:49.739Z,3.90
2022-08-05T18:15:19.353Z,3.80
2022-08-05T18:17:59.195Z,3.72
2022-08-05T18:23:09.546Z,3.55
2022-08-05T18:25:44.934Z,3.38
2022-08-05T18:28:16.433Z,3.40
2022-08-05T18:30:50.917Z,3.88
2022-08-05T18:33:22.506Z,4.00
2022-08-05T18:36:03.556Z,3.70
2022-08-05T18:38:35.983Z,4.28
2022-08-05T18:41:56.289Z,4.10
2022-08-05T18:43:52.793Z,3.83
2022-08-05T18:46:22.185Z,4.05
2022-08-05T18:48:54.409Z,3.80
2022-08-05T18:52:04.620Z,4.40
2022-08-05T18:54:28.589Z,4.03
2022-08-05T18:56:59.890Z,4.05
2022-08-05T18:59:42.694Z,4.60
2022-08-05T19:02:28.299Z,4.57
2022-08-05T19:06:06.183Z,4.00
2022-08-05T19:07:58.252Z,4.47
2022-08-05T19:10:28.677Z,4.20
2022-08-05T19:12:57.036Z,4.28
2022-08-05T19:15:58.765Z,4.30
2022-08-05T19:18:20.760Z,4.13
2022-08-05T19:20:52.509Z,4.32
2022-08-05T19:24:04.140Z,4.07
2022-08-05T19:26:09.516Z,4.20
2022-08-05T19:28:41.539Z,4.20
2022-08-05T19:31:12.973Z,4.47
2022-08-05T19:33:48.566Z,4.45
2022-08-05T19:36:25.588Z,4.03
2022-08-05T19:38:55.203Z,4.90
2022-08-05T19:41:34.714Z,4.50
2022-08-05T19:44:18.479Z,4.43
2022-08-05T19:46:46.980Z,4.47
2022-08-05T19:49:17.624Z,4.70
2022-08-05T19:52:04.791Z,4.75
2022-08-05T19:54:35.725Z,4.60
2022-08-05T19:57:09.084Z,4.60
2022-08-05T20:00:00.658Z,4.40
2022-08-05T20:02:27.541Z,4.47
2022-08-05T20:04:58.552Z,5.28
2022-08-05T20:07:47.503Z,4.93
2022-08-05T20:10:15.834Z,4.57
2022-08-05T20:12:48.298Z,4.72
2022-08-05T20:18:10.532Z,4.60
2022-08-05T20:20:56.261Z,5.20
2022-08-05T20:23:42.285Z,5.45
2022-08-05T20:26:15.175Z,5.22
2022-08-05T20:28:45.334Z,5.15
2022-08-05T20:31:13.464Z,5.10
2022-08-05T20:33:44.754Z,5.03
2022-08-05T20:36:16.485Z,5.68
2022-08-05T20:38:53.377Z,5.05
2022-08-05T20:41:24.069Z,5.15
2022-08-05T20:43:58.590Z,5.28
2022-08-05T20:46:30.097Z,4.97
2022-08-05T20:48:58.106Z,4.90
2022-08-05T20:51:27.921Z,5.50
2022-08-05T20:53:57.135Z,5.22
2022-08-05T20:56:34.042Z,5.03
2022-08-05T20:59:11.384Z,4.85
2022-08-05T21:01:48.086Z,4.80
2022-08-05T21:04:18.688Z,5.20
2022-08-05T21:06:48.131Z,5.47
2022-08-05T21:09:16.196Z,5.25
2022-08-05T21:12:09.643Z,4.88
2022-08-05T21:14:34.884Z,5.43
2022-08-05T21:17:05.390Z,4.90
2022-08-05T21:19:47.311Z,4.95
2022-08-05T21:22:23.352Z,5.05
2022-08-05T21:24:52.780Z,5.55
2022-08-05T21:27:25.373Z,5.07
2022-08-05T21:29:56.083Z,4.97
2022-08-05T21:32:27.164Z,4.90
2022-08-05T21:35:09.104Z,5.05
2022-08-05T21:37:52.996Z,5.32
2022-08-05T21:40:22.203Z,5.50
2022-08-05T21:42:53.482Z,4.97
2022-08-05T21:45:24.497Z,5.18
2022-08-05T21:48:08.248Z,4.78
2022-08-05T21:50:36.772Z,5.22
2022-08-05T21:53:16.466Z,5.15
2022-08-05T21:56:04.909Z,4.93
2022-08-05T21:58:34.092Z,4.82
2022-08-05T22:01:05.721Z,5.00
2022-08-05T22:03:48.862Z,5.00
2022-08-05T22:06:22.564Z,5.32
2022-08-05T22:08:53.060Z,5.35
2022-08-05T22:11:34.948Z,4.55
2022-08-05T22:14:33.836Z,4.75
2022-08-05T22:16:56.035Z,4.95
2022-08-05T22:20:01.791Z,5.53
2022-08-05T22:22:12.883Z,5.60
2022-08-05T22:25:03.693Z,5.13
2022-08-05T22:28:11.057Z,5.30
2022-08-05T22:30:37.655Z,5.20
2022-08-05T22:33:56.543Z,5.32
2022-08-05T22:36:14.335Z,5.90
2022-08-05T22:38:43.287Z,5.10
2022-08-05T22:41:12.738Z,5.10
2022-08-05T22:43:43.183Z,4.93
2022-08-05T22:46:12.021Z,5.47
2022-08-05T22:48:41.413Z,5.22
2022-08-05T22:51:15.916Z,5.03
2022-08-05T22:53:51.884Z,5.57
2022-08-05T22:56:30.272Z,5.30
2022-08-05T22:58:59.997Z,5.20
2022-08-05T23:02:04.497Z,5.00
2022-08-05T23:04:19.280Z,5.10
2022-08-05T23:06:47.823Z,4.93
2022-08-05T23:09:27.570Z,4.90
2022-08-05T23:12:06.145Z,5.00
2022-08-05T23:14:34.144Z,5.53
2022-08-05T23:17:24.372Z,5.22
2022-08-05T23:20:02.272Z,4.85
2022-08-05T23:22:31.079Z,5.50
2022-08-05T23:24:59.816Z,5.20
2022-08-05T23:27:42.272Z,5.45
2022-08-05T23:30:11.900Z,4.90
2022-08-05T23:32:40.719Z,5.72
2022-08-05T23:35:13.268Z,5.35
2022-08-05T23:37:41.478Z,5.78
2022-08-05T23:40:12.095Z,5.53
2022-08-05T23:42:47.443Z,5.18
2022-08-05T23:45:23.739Z,5.13
2022-08-05T23:47:53.575Z,5.30
2022-08-05T23:50:22.116Z,5.38
2022-08-05T23:52:54.588Z,5.68
2022-08-05T23:55:24.728Z,5.30
2022-08-05T23:58:00.613Z,5.88
